Time;durP1;ratioP1;P1;durP2;ratioP2;P2;SDS_P1;SDS_P2;PMS_P1;PMS_P2;Temp;Humidity;BMP_temperature;BMP_pressure;BME280_temperature;BME280_humidity;BME280_pressure;Samples;Min_cycle;Max_cycle;Signal;HPM_P1;HPM_P2
2023/05/10 00:00:31;;;;;;;4.10;2.22;;;14.20;50.80;;;;;;4986455;28;20042;-72
2023/05/10 00:02:56;;;;;;;5.28;2.70;;;14.10;50.90;;;;;;4988071;28;20022;-71
2023/05/10 00:05:21;;;;;;;5.18;2.30;;;14.00;51.10;;;;;;4985376;28;20106;-72
2023/05/10 00:07:47;;;;;;;7.85;2.72;;;14.00;51.40;;;;;;4999813;28;20034;-71
2023/05/10 00:10:13;;;;;;;6.43;2.50;;;13.90;52.00;;;;;;4989224;28;20443;-71
2023/05/10 00:12:38;;;;;;;5.80;2.95;;;13.90;51.90;;;;;;4990494;28;20257;-71
2023/05/10 00:15:05;;;;;;;4.30;2.30;;;13.80;53.10;;;;;;4997945;28;20113;-71
2023/05/10 00:17:30;;;;;;;5.80;2.63;;;13.80;52.10;;;;;;4990539;28;20107;-71
2023/05/10 00:19:56;;;;;;;4.90;2.60;;;13.80;52.50;;;;;;4987262;28;20130;-72
2023/05/10 00:22:21;;;;;;;6.75;2.30;;;13.70;52.80;;;;;;4970922;28;20395;-71
2023/05/10 00:24:47;;;;;;;5.40;3.03;;;13.60;53.50;;;;;;4993964;28;20030;-71
2023/05/10 00:27:12;;;;;;;5.35;2.72;;;13.50;53.70;;;;;;4987770;28;20042;-71
2023/05/10 00:29:38;;;;;;;5.03;2.67;;;13.50;53.60;;;;;;4987005;28;20111;-71
2023/05/10 00:32:03;;;;;;;5.70;2.55;;;13.40;53.90;;;;;;4978748;28;20070;-71
2023/05/10 00:34:29;;;;;;;4.03;2.58;;;13.30;54.40;;;;;;4982257;28;20109;-71
2023/05/10 00:36:54;;;;;;;5.00;2.80;;;13.20;54.90;;;;;;4990125;28;20023;-71
2023/05/10 00:39:20;;;;;;;6.60;2.38;;;13.20;54.80;;;;;;4989968;28;20411;-72
2023/05/10 00:41:45;;;;;;;4.47;2.10;;;13.00;55.80;;;;;;4993413;28;20375;-71
2023/05/10 00:44:11;;;;;;;4.55;2.63;;;13.10;55.60;;;;;;4991474;28;20399;-71
2023/05/10 00:46:37;;;;;;;4.93;2.65;;;13.00;55.90;;;;;;4988223;28;20105;-71
2023/05/10 00:49:02;;;;;;;5.85;2.78;;;12.90;56.20;;;;;;4991485;28;20092;-71
2023/05/10 00:51:28;;;;;;;6.85;2.30;;;12.90;56.20;;;;;;4991148;28;20152;-71
2023/05/10 00:53:55;;;;;;;5.30;2.83;;;12.90;56.30;;;;;;4994085;28;20033;-71
2023/05/10 00:56:22;;;;;;;5.05;2.70;;;12.90;56.60;;;;;;4991076;28;20022;-71
2023/05/10 00:58:48;;;;;;;6.72;2.20;;;12.80;56.80;;;;;;4991715;28;20027;-71
2023/05/10 01:01:14;;;;;;;6.22;2.72;;;12.80;57.10;;;;;;4986401;28;20045;-72
2023/05/10 01:03:41;;;;;;;6.38;2.53;;;12.70;57.10;;;;;;4991914;28;20105;-71
2023/05/10 01:06:07;;;;;;;3.70;2.17;;;12.60;57.70;;;;;;4990106;28;20583;-71
2023/05/10 01:08:33;;;;;;;6.72;2.63;;;12.60;57.70;;;;;;4991905;28;20027;-71
2023/05/10 01:10:58;;;;;;;6.53;2.70;;;12.60;57.50;;;;;;4987915;28;20061;-71
2023/05/10 01:13:39;;;;;;;8.20;2.70;;;12.60;58.10;;;;;;4990063;28;20034;-71
2023/05/10 01:16:06;;;;;;;5.60;2.73;;;12.50;58.40;;;;;;4992790;28;20049;-72
2023/05/10 01:18:36;;;;;;;5.20;2.95;;;12.50;58.90;;;;;;4990322;28;20342;-71
2023/05/10 01:21:17;;;;;;;4.63;2.83;;;12.40;58.90;;;;;;4987712;28;20402;-71
2023/05/10 01:24:00;;;;;;;6.22;2.58;;;12.50;58.40;;;;;;4990221;28;20026;-71
2023/05/10 01:26:59;;;;;;;10.95;2.50;;;12.40;58.50;;;;;;4995753;28;20039;-71
2023/05/10 01:30:01;;;;;;;3.50;2.50;;;12.30;59.10;;;;;;4987986;28;20049;-72
2023/05/10 01:33:04;;;;;;;4.40;2.80;;;12.30;59.50;;;;;;4987620;28;20037;-71
2023/05/10 01:35:49;;;;;;;4.03;2.53;;;12.10;60.50;;;;;;4971112;28;20042;-71
2023/05/10 01:38:22;;;;;;;5.28;2.55;;;12.30;59.30;;;;;;4994613;28;20018;-71
2023/05/10 01:41:14;;;;;;;5.00;2.67;;;12.30;59.80;;;;;;4986156;28;20069;-71
2023/05/10 01:44:01;;;;;;;4.15;2.72;;;12.20;60.20;;;;;;4989901;28;20076;-71
2023/05/10 01:46:38;;;;;;;5.03;2.58;;;12.20;60.30;;;;;;4991307;28;20387;-71
2023/05/10 01:49:11;;;;;;;6.90;2.80;;;12.20;60.20;;;;;;4992943;28;20025;-71
2023/05/10 01:51:46;;;;;;;6.70;2.92;;;12.20;60.10;;;;;;4999738;28;20034;-71
2023/05/10 01:54:13;;;;;;;4.18;3.00;;;12.10;60.90;;;;;;4989869;28;20034;-71
2023/05/10 01:56:40;;;;;;;4.40;2.60;;;12.10;60.30;;;;;;4989614;28;20440;-71
2023/05/10 01:59:12;;;;;;;4.72;2.70;;;12.10;60.90;;;;;;4986095;28;20348;-71
2023/05/10 02:01:38;;;;;;;6.10;2.67;;;12.00;61.60;;;;;;4982779;28;20089;-71
2023/05/10 02:04:06;;;;;;;5.53;2.63;;;12.00;61.20;;;;;;4979251;28;20360;-71
2023/05/10 02:06:33;;;;;;;4.15;2.50;;;12.00;61.60;;;;;;4985078;28;20371;-71
2023/05/10 02:09:00;;;;;;;5.85;2.70;;;12.00;61.30;;;;;;4991395;28;20376;-71
2023/05/10 02:11:28;;;;;;;6.78;2.85;;;11.90;61.60;;;;;;4984480;28;20034;-71
2023/05/10 02:13:55;;;;;;;4.18;2.30;;;11.90;62.00;;;;;;4995960;28;20029;-71
2023/05/10 02:16:25;;;;;;;6.05;2.97;;;11.80;62.50;;;;;;4988920;28;20026;-71
2023/05/10 02:18:52;;;;;;;5.30;2.70;;;11.80;62.30;;;;;;4988590;28;20034;-71
2023/05/10 02:21:18;;;;;;;6.15;3.05;;;11.80;62.40;;;;;;4990765;28;20062;-71
2023/05/10 02:23:45;;;;;;;4.75;3.03;;;11.80;62.90;;;;;;4992466;28;20027;-71
2023/05/10 02:26:11;;;;;;;6.00;3.03;;;11.70;63.00;;;;;;4989743;28;20046;-71
2023/05/10 02:28:40;;;;;;;5.00;2.92;;;11.70;62.90;;;;;;4987495;28;20066;-71
2023/05/10 02:31:06;;;;;;;9.77;3.17;;;11.70;63.20;;;;;;4989339;28;20478;-71
2023/05/10 02:33:33;;;;;;;4.53;2.92;;;11.60;63.30;;;;;;4985199;28;20093;-70
2023/05/10 02:35:59;;;;;;;6.18;2.97;;;11.60;63.50;;;;;;4989744;28;20038;-71
2023/05/10 02:38:26;;;;;;;5.53;3.00;;;11.60;63.40;;;;;;4974161;28;20026;-71
2023/05/10 02:40:53;;;;;;;5.03;2.72;;;11.60;63.60;;;;;;4989002;28;20038;-71
2023/05/10 02:43:20;;;;;;;4.43;2.78;;;11.60;63.70;;;;;;4986909;28;20027;-71
2023/05/10 02:45:47;;;;;;;5.30;2.88;;;11.60;63.70;;;;;;4973068;28;20431;-71
2023/05/10 02:48:13;;;;;;;5.25;3.00;;;11.50;64.20;;;;;;4988389;28;20034;-71
2023/05/10 02:50:48;;;;;;;5.93;3.28;;;11.60;63.80;;;;;;4987472;28;20113;-71
2023/05/10 02:53:19;;;;;;;4.95;2.80;;;11.60;64.10;;;;;;4990563;28;20027;-71
2023/05/10 02:55:47;;;;;;;4.97;2.67;;;11.50;64.60;;;;;;4990780;28;20030;-71
2023/05/10 02:58:13;;;;;;;5.70;2.92;;;11.50;64.50;;;;;;4989868;28;20041;-71
2023/05/10 03:00:38;;;;;;;5.75;3.20;;;11.50;64.50;;;;;;4982601;28;20477;-71
2023/05/10 03:03:04;;;;;;;6.28;2.90;;;11.50;64.70;;;;;;4986837;28;20023;-71
2023/05/10 03:05:29;;;;;;;6.10;2.97;;;11.50;64.50;;;;;;4986292;28;20022;-71
2023/05/10 03:07:55;;;;;;;7.13;3.65;;;11.50;65.00;;;;;;4990258;28;20644;-71
2023/05/10 03:10:26;;;;;;;4.05;2.65;;;11.50;65.00;;;;;;4990805;28;20033;-71
2023/05/10 03:12:56;;;;;;;;;;;11.40;65.30;;;;;;4987911;28;20073;-71
2023/05/10 03:15:40;;;;;;;7.57;3.08;;;11.50;65.20;;;;;;4983584;28;20027;-71
2023/05/10 03:18:12;;;;;;;4.50;3.03;;;11.50;65.30;;;;;;4990723;28;20101;-71
2023/05/10 03:20:48;;;;;;;5.45;3.00;;;11.40;65.80;;;;;;4987459;28;20089;-71
2023/05/10 03:23:35;;;;;;;6.80;3.30;;;11.50;65.30;;;;;;4976581;28;20073;-71
2023/05/10 03:26:08;;;;;;;5.90;3.28;;;11.40;65.80;;;;;;5085172;27;20372;-70
2023/05/10 03:28:35;;;;;;;4.10;2.88;;;11.40;66.20;;;;;;5077388;28;20032;-70
2023/05/10 03:31:02;;;;;;;5.40;3.38;;;11.50;65.70;;;;;;5066779;28;20479;-70
2023/05/10 03:33:28;;;;;;;7.13;3.53;;;11.40;66.20;;;;;;5053403;28;20021;-70
2023/05/10 03:35:54;;;;;;;7.00;3.38;;;11.40;66.50;;;;;;5059876;28;20029;-70
2023/05/10 03:38:19;;;;;;;5.07;3.30;;;11.40;66.20;;;;;;5068024;28;20039;-70
2023/05/10 03:40:44;;;;;;;9.68;3.72;;;11.40;66.30;;;;;;5063386;28;20079;-70
2023/05/10 03:43:10;;;;;;;5.65;3.08;;;11.40;66.40;;;;;;5064868;28;20033;-70
2023/05/10 03:45:36;;;;;;;6.15;3.22;;;11.40;66.60;;;;;;5061548;28;20039;-70
2023/05/10 03:48:01;;;;;;;5.13;3.20;;;11.50;66.40;;;;;;5064681;28;20555;-70
2023/05/10 03:50:27;;;;;;;9.27;3.55;;;11.50;66.60;;;;;;5061147;28;20128;-70
2023/05/10 03:52:52;;;;;;;5.70;3.42;;;11.50;66.80;;;;;;5068936;28;20028;-70
2023/05/10 03:55:18;;;;;;;5.28;3.50;;;11.50;66.80;;;;;;5063457;28;20079;-70
2023/05/10 03:57:44;;;;;;;5.10;3.00;;;11.50;66.50;;;;;;5072173;28;20041;-70
2023/05/10 04:00:10;;;;;;;8.02;3.50;;;11.50;66.80;;;;;;5054388;28;20028;-70
2023/05/10 04:02:36;;;;;;;5.88;3.17;;;11.60;66.70;;;;;;5058559;28;20060;-70
2023/05/10 04:05:02;;;;;;;6.35;3.30;;;11.60;66.60;;;;;;5061927;28;20056;-70
2023/05/10 04:07:27;;;;;;;7.03;3.20;;;11.60;66.80;;;;;;5051805;28;20022;-71
2023/05/10 04:09:53;;;;;;;5.63;3.22;;;11.70;66.60;;;;;;5048106;28;20045;-71
2023/05/10 04:12:18;;;;;;;4.90;3.00;;;11.70;66.80;;;;;;5062262;28;20027;-71
2023/05/10 04:14:44;;;;;;;6.03;3.30;;;11.70;67.00;;;;;;5060355;28;20020;-71
2023/05/10 04:17:10;;;;;;;4.82;3.58;;;11.80;66.40;;;;;;5063977;28;20032;-70
2023/05/10 04:19:35;;;;;;;6.28;3.60;;;11.80;66.40;;;;;;5063768;28;20256;-71
2023/05/10 04:22:02;;;;;;;4.80;3.13;;;11.80;66.90;;;;;;5058658;28;20078;-71
2023/05/10 04:24:28;;;;;;;5.03;3.10;;;11.90;66.70;;;;;;5064748;28;20048;-71
2023/05/10 04:26:54;;;;;;;5.47;3.30;;;11.90;66.90;;;;;;5061743;28;20024;-71
2023/05/10 04:29:20;;;;;;;5.30;3.40;;;12.00;67.00;;;;;;5060055;28;20398;-71
2023/05/10 04:31:45;;;;;;;6.43;3.03;;;12.00;66.90;;;;;;5055251;28;20063;-74
2023/05/10 04:34:11;;;;;;;7.68;3.50;;;12.00;66.60;;;;;;5061973;28;20036;-74
2023/05/10 04:36:36;;;;;;;8.15;3.70;;;12.10;66.30;;;;;;5051629;28;20415;-73
2023/05/10 04:39:03;;;;;;;5.93;3.45;;;12.10;66.30;;;;;;5046973;28;20472;-74
2023/05/10 04:41:28;;;;;;;4.93;2.90;;;12.20;66.50;;;;;;5048434;28;20020;-74
2023/05/10 04:43:54;;;;;;;6.25;3.45;;;12.20;66.50;;;;;;5047983;28;20350;-74
2023/05/10 04:46:20;;;;;;;5.53;3.17;;;12.30;66.40;;;;;;5050676;28;20103;-73
2023/05/10 04:48:45;;;;;;;4.75;3.30;;;12.30;66.60;;;;;;5046203;28;20119;-73
2023/05/10 04:51:11;;;;;;;7.60;3.47;;;12.30;66.20;;;;;;5041979;28;20040;-73
2023/05/10 04:53:36;;;;;;;8.35;3.22;;;12.40;67.00;;;;;;5048344;28;20087;-74
2023/05/10 04:56:02;;;;;;;6.45;3.38;;;12.40;65.90;;;;;;5052986;28;20424;-74
2023/05/10 04:58:27;;;;;;;5.97;3.35;;;12.50;66.40;;;;;;5047550;28;20067;-74
2023/05/10 05:00:53;;;;;;;5.57;3.33;;;12.60;65.80;;;;;;5051478;28;20124;-73
2023/05/10 05:03:18;;;;;;;5.15;3.00;;;12.60;66.10;;;;;;5061843;28;20406;-74
2023/05/10 05:05:44;;;;;;;7.25;3.15;;;12.60;65.60;;;;;;5043806;28;20038;-74
2023/05/10 05:08:10;;;;;;;7.13;3.45;;;12.70;66.10;;;;;;5047204;28;20066;-74
2023/05/10 05:10:35;;;;;;;4.60;3.10;;;12.80;66.70;;;;;;5046998;28;20108;-74
2023/05/10 05:13:01;;;;;;;6.22;3.63;;;12.80;65.20;;;;;;5038631;28;20031;-74
2023/05/10 05:15:27;;;;;;;5.20;3.08;;;12.90;65.00;;;;;;5052040;28;20016;-74
2023/05/10 05:17:52;;;;;;;7.32;3.42;;;13.00;65.30;;;;;;5040117;28;20016;-74
2023/05/10 05:20:18;;;;;;;6.28;3.30;;;13.10;66.00;;;;;;5045436;28;20708;-73
2023/05/10 05:22:44;;;;;;;5.15;3.20;;;13.00;65.20;;;;;;5047872;28;20075;-73
2023/05/10 05:25:11;;;;;;;4.63;3.30;;;13.20;65.80;;;;;;5046474;28;20057;-74
2023/05/10 05:27:37;;;;;;;8.18;3.05;;;13.20;65.10;;;;;;5038711;28;20075;-72
2023/05/10 05:30:03;;;;;;;5.35;3.28;;;13.30;65.50;;;;;;5038332;28;20389;-72
2023/05/10 05:32:28;;;;;;;8.98;3.45;;;13.40;64.20;;;;;;5037867;28;20392;-73
2023/05/10 05:34:54;;;;;;;9.55;3.50;;;13.60;65.30;;;;;;5039509;28;20844;-72
2023/05/10 05:37:21;;;;;;;8.93;3.20;;;13.60;64.70;;;;;;5042879;28;20098;-73
2023/05/10 05:39:47;;;;;;;9.23;3.92;;;13.60;63.90;;;;;;5049990;28;20507;-73
2023/05/10 05:42:13;;;;;;;7.95;3.20;;;13.60;64.40;;;;;;5049478;28;20025;-75
2023/05/10 05:44:39;;;;;;;5.88;3.20;;;13.70;63.90;;;;;;5045875;28;20381;-76
2023/05/10 05:47:05;;;;;;;6.60;3.53;;;13.70;63.40;;;;;;5050478;28;20051;-73
2023/05/10 05:49:31;;;;;;;5.45;3.30;;;13.90;64.30;;;;;;5041190;28;20033;-73
2023/05/10 05:52:00;;;;;;;7.90;3.20;;;13.70;63.00;;;;;;5046863;28;20096;-73
2023/05/10 05:54:27;;;;;;;8.82;3.58;;;13.70;64.10;;;;;;5039407;28;20057;-73
2023/05/10 05:56:55;;;;;;;5.68;3.33;;;13.60;64.10;;;;;;5048026;28;20339;-73
2023/05/10 05:59:21;;;;;;;5.75;3.58;;;13.60;63.70;;;;;;5052013;28;20052;-73
2023/05/10 06:01:46;;;;;;;6.95;3.15;;;13.60;64.30;;;;;;5046776;28;20053;-73
2023/05/10 06:04:12;;;;;;;6.22;3.10;;;13.60;63.30;;;;;;5042779;28;20063;-73
2023/05/10 06:06:37;;;;;;;6.10;3.30;;;13.70;64.40;;;;;;5043033;28;20548;-73
2023/05/10 06:09:03;;;;;;;7.43;3.75;;;13.80;64.50;;;;;;5043781;28;20033;-73
2023/05/10 06:11:28;;;;;;;4.82;3.30;;;13.80;63.50;;;;;;5041174;28;20029;-73
2023/05/10 06:13:54;;;;;;;6.82;3.20;;;13.80;64.00;;;;;;5049742;28;20373;-73
2023/05/10 06:16:19;;;;;;;5.25;3.28;;;13.90;64.20;;;;;;5041947;28;20033;-73
2023/05/10 06:18:45;;;;;;;4.35;3.20;;;14.00;64.40;;;;;;5047304;28;20036;-73
2023/05/10 06:21:10;;;;;;;7.85;3.25;;;14.00;63.90;;;;;;5049224;28;20063;-73
2023/05/10 06:23:36;;;;;;;5.22;3.45;;;13.90;63.30;;;;;;5047562;28;20029;-73
2023/05/10 06:26:01;;;;;;;14.05;3.50;;;14.10;63.90;;;;;;5044972;28;20049;-73
2023/05/10 06:28:27;;;;;;;5.35;3.22;;;14.10;63.80;;;;;;5044609;28;20560;-73
2023/05/10 06:30:52;;;;;;;6.03;3.45;;;14.30;63.40;;;;;;5047327;28;20032;-72
2023/05/10 06:33:18;;;;;;;7.45;3.13;;;14.30;62.40;;;;;;5048570;28;20374;-73
2023/05/10 06:35:43;;;;;;;7.20;3.10;;;14.30;62.80;;;;;;5045351;28;20032;-73
2023/05/10 06:38:09;;;;;;;4.93;3.20;;;14.20;62.50;;;;;;5043297;28;20029;-73
2023/05/10 06:40:35;;;;;;;10.57;3.50;;;14.20;62.80;;;;;;5047678;28;20641;-72
2023/05/10 06:43:01;;;;;;;11.13;3.42;;;14.30;64.20;;;;;;5040970;28;20584;-74
2023/05/10 06:45:26;;;;;;;7.53;3.85;;;14.10;62.90;;;;;;5038179;28;20040;-74
2023/05/10 06:47:52;;;;;;;9.25;3.70;;;14.00;64.10;;;;;;5042889;28;20028;-74
2023/05/10 06:50:18;;;;;;;11.25;3.45;;;14.10;64.40;;;;;;5036324;28;20374;-76
2023/05/10 06:52:43;;;;;;;7.50;3.70;;;14.00;65.90;;;;;;5045497;28;20122;-76
2023/05/10 06:55:09;;;;;;;5.15;3.05;;;14.00;65.50;;;;;;5029043;28;20025;-76
2023/05/10 06:57:35;;;;;;;7.30;3.40;;;14.00;65.50;;;;;;5037516;28;20028;-76
2023/05/10 07:00:01;;;;;;;9.68;3.33;;;13.90;65.10;;;;;;5039408;28;20039;-74
2023/05/10 07:02:26;;;;;;;8.68;3.55;;;13.80;65.20;;;;;;5044166;28;20028;-74
2023/05/10 07:04:52;;;;;;;7.90;3.22;;;14.00;65.50;;;;;;5052330;28;20037;-75
2023/05/10 07:07:18;;;;;;;10.43;3.40;;;14.00;65.60;;;;;;5043441;28;20368;-74
2023/05/10 07:09:44;;;;;;;13.00;3.80;;;13.80;65.60;;;;;;5033943;28;20017;-75
2023/05/10 07:12:10;;;;;;;8.38;3.70;;;14.00;66.40;;;;;;5037839;28;20029;-75
2023/05/10 07:14:35;;;;;;;7.38;3.25;;;13.80;66.50;;;;;;5043717;28;20038;-75
2023/05/10 07:17:01;;;;;;;8.57;3.78;;;13.80;67.90;;;;;;5043699;28;20071;-76
2023/05/10 07:19:26;;;;;;;7.60;3.33;;;13.80;67.50;;;;;;5045170;28;20449;-75
2023/05/10 07:21:52;;;;;;;11.02;3.70;;;13.80;68.80;;;;;;5045924;28;20070;-76
2023/05/10 07:24:17;;;;;;;5.68;3.28;;;13.70;69.80;;;;;;5050410;28;20045;-76
2023/05/10 07:26:42;;;;;;;5.30;3.70;;;13.80;70.80;;;;;;5051297;28;20108;-76
2023/05/10 07:29:08;;;;;;;6.68;3.88;;;13.80;71.90;;;;;;5045969;28;20037;-76
2023/05/10 07:31:33;;;;;;;6.68;3.35;;;13.80;71.30;;;;;;5036091;28;20025;-76
2023/05/10 07:33:59;;;;;;;7.20;3.60;;;13.70;73.10;;;;;;5041754;28;20033;-75
2023/05/10 07:36:24;;;;;;;7.07;4.28;;;13.80;74.40;;;;;;5046792;28;20037;-76
2023/05/10 07:38:50;;;;;;;10.13;4.20;;;13.60;74.90;;;;;;5050187;28;20032;-75
2023/05/10 07:41:15;;;;;;;9.65;4.15;;;13.70;74.50;;;;;;5047809;28;20071;-76
2023/05/10 07:43:41;;;;;;;7.50;4.10;;;13.80;74.00;;;;;;5049689;28;20364;-75
2023/05/10 07:46:07;;;;;;;5.32;3.65;;;13.80;73.90;;;;;;5040969;28;20045;-76
2023/05/10 07:48:32;;;;;;;7.95;4.03;;;13.80;74.00;;;;;;5042746;28;20095;-76
2023/05/10 07:50:58;;;;;;;6.68;4.10;;;13.60;75.90;;;;;;5040340;28;20075;-77
2023/05/10 07:53:23;;;;;;;9.70;4.25;;;13.70;74.20;;;;;;5044682;28;20029;-76
2023/05/10 07:55:56;;;;;;;5.60;4.20;;;14.00;75.20;;;;;;5060031;28;20012;-77
2023/05/10 07:58:22;;;;;;;7.25;4.28;;;14.10;74.80;;;;;;5045577;28;20033;-76
2023/05/10 08:00:49;;;;;;;11.65;4.53;;;14.10;73.80;;;;;;5043732;28;20033;-75
2023/05/10 08:03:14;;;;;;;7.97;4.55;;;13.90;75.30;;;;;;5043007;28;20033;-76
2023/05/10 08:05:40;;;;;;;8.10;4.22;;;14.00;75.90;;;;;;5046039;28;20048;-77
2023/05/10 08:08:06;;;;;;;5.80;4.07;;;13.90;76.70;;;;;;5045571;28;20032;-77
2023/05/10 08:10:31;;;;;;;8.43;4.72;;;13.70;76.30;;;;;;5048371;28;20369;-77
2023/05/10 08:12:58;;;;;;;8.73;4.75;;;13.70;77.10;;;;;;5052511;28;20458;-76
2023/05/10 08:15:24;;;;;;;11.40;4.53;;;13.70;77.60;;;;;;5051243;28;20102;-76
2023/05/10 08:17:50;;;;;;;10.10;5.00;;;13.60;77.20;;;;;;5053987;28;20036;-77
2023/05/10 08:20:18;;;;;;;8.00;4.97;;;13.50;78.80;;;;;;5048106;28;20035;-76
2023/05/10 08:22:46;;;;;;;8.65;5.40;;;13.30;79.50;;;;;;5047118;28;20469;-76
2023/05/10 08:25:12;;;;;;;9.70;5.25;;;13.30;80.10;;;;;;5049880;28;20045;-76
2023/05/10 08:27:37;;;;;;;9.57;5.43;;;13.20;80.50;;;;;;5054177;28;20032;-77
2023/05/10 08:30:03;;;;;;;8.35;5.45;;;13.10;81.80;;;;;;5050190;28;20113;-78
2023/05/10 08:32:29;;;;;;;6.43;5.00;;;12.90;82.50;;;;;;5040494;28;20034;-77
2023/05/10 08:34:55;;;;;;;9.57;5.53;;;12.80;83.50;;;;;;5045758;28;20049;-76
2023/05/10 08:37:22;;;;;;;9.73;5.75;;;12.70;84.50;;;;;;5049426;28;20028;-77
2023/05/10 08:39:48;;;;;;;7.85;5.85;;;12.60;85.00;;;;;;5052651;28;20016;-76
2023/05/10 08:42:18;;;;;;;11.50;6.40;;;12.60;85.40;;;;;;5054058;28;20453;-69
2023/05/10 08:44:47;;;;;;;9.73;5.97;;;12.50;86.70;;;;;;5051215;28;20040;-75
2023/05/10 08:47:14;;;;;;;14.85;6.95;;;12.50;87.20;;;;;;5053557;28;20047;-74
2023/05/10 08:49:41;;;;;;;11.88;6.70;;;12.40;87.20;;;;;;5051798;28;20036;-75
2023/05/10 08:52:07;;;;;;;10.60;7.05;;;12.50;88.30;;;;;;5054661;28;20037;-75
2023/05/10 08:54:34;;;;;;;12.40;7.00;;;12.50;89.40;;;;;;5050842;28;20108;-75
2023/05/10 08:57:00;;;;;;;11.70;7.88;;;12.30;90.10;;;;;;5049271;28;20489;-75
2023/05/10 08:59:25;;;;;;;10.00;7.40;;;12.30;90.80;;;;;;5051364;28;20033;-75
2023/05/10 09:01:53;;;;;;;11.95;7.53;;;12.10;91.10;;;;;;5052798;28;20489;-75
2023/05/10 09:04:20;;;;;;;9.65;7.60;;;12.00;91.50;;;;;;5049426;28;20112;-75
2023/05/10 09:06:45;;;;;;;11.63;8.02;;;12.10;92.20;;;;;;5040429;28;20022;-75
2023/05/10 09:09:12;;;;;;;11.98;8.77;;;12.10;92.60;;;;;;5045837;28;20072;-75
2023/05/10 09:11:37;;;;;;;11.68;8.02;;;12.00;93.10;;;;;;5047092;28;20021;-75
2023/05/10 09:14:03;;;;;;;11.60;8.25;;;11.90;92.80;;;;;;5044877;28;20891;-74
2023/05/10 09:16:29;;;;;;;13.73;8.23;;;11.80;93.50;;;;;;5044543;28;20029;-75
2023/05/10 09:18:54;;;;;;;12.35;8.77;;;11.80;93.70;;;;;;5047197;28;20021;-74
2023/05/10 09:21:20;;;;;;;13.00;9.15;;;11.80;93.30;;;;;;5049809;28;20028;-74
2023/05/10 09:23:47;;;;;;;13.07;8.77;;;11.80;93.70;;;;;;5050070;28;20044;-75
2023/05/10 09:26:12;;;;;;;10.70;8.48;;;11.70;93.90;;;;;;5049878;28;20040;-75
2023/05/10 09:28:55;;;;;;;9.85;8.13;;;11.60;93.60;;;;;;5044636;28;20029;-76
2023/05/10 09:31:21;;;;;;;16.40;9.68;;;11.80;94.10;;;;;;5044027;28;20025;-75
2023/05/10 09:33:48;;;;;;;14.00;9.77;;;12.00;94.40;;;;;;5047632;28;20087;-74
2023/05/10 09:36:14;;;;;;;12.90;9.23;;;12.10;94.20;;;;;;5054488;28;20056;-75
2023/05/10 09:38:47;;;;;;;13.52;9.13;;;12.10;93.90;;;;;;5047227;28;20021;-74
2023/05/10 09:41:17;;;;;;;12.55;9.35;;;12.20;94.10;;;;;;5054233;28;20469;-75
2023/05/10 09:43:43;;;;;;;18.27;10.57;;;12.40;93.70;;;;;;5054757;28;20036;-75
2023/05/10 09:46:10;;;;;;;12.52;9.43;;;12.50;94.30;;;;;;5054951;28;20743;-75
2023/05/10 09:48:42;;;;;;;13.98;9.07;;;12.70;94.00;;;;;;5051424;28;20056;-75
2023/05/10 09:51:08;;;;;;;13.02;9.98;;;12.60;93.70;;;;;;5048214;28;20366;-75
2023/05/10 09:53:33;;;;;;;15.70;9.60;;;12.90;94.10;;;;;;5049687;28;20021;-74
2023/05/10 09:55:59;;;;;;;14.15;9.88;;;12.80;93.50;;;;;;5055034;28;20036;-74
2023/05/10 09:58:24;;;;;;;12.13;9.85;;;12.60;92.50;;;;;;5052501;28;20025;-74
2023/05/10 10:00:53;;;;;;;10.50;8.85;;;12.60;92.90;;;;;;5050149;28;20071;-75
2023/05/10 10:03:20;;;;;;;14.50;10.02;;;12.60;93.10;;;;;;5048858;28;20031;-75
2023/05/10 10:05:47;;;;;;;15.77;10.23;;;12.80;94.10;;;;;;5043670;28;20037;-75
2023/05/10 10:08:14;;;;;;;12.18;9.32;;;12.80;93.70;;;;;;5047874;28;20115;-75
2023/05/10 10:10:40;;;;;;;16.75;10.90;;;12.50;93.50;;;;;;5043004;28;20037;-74
2023/05/10 10:13:07;;;;;;;15.00;11.73;;;12.50;93.50;;;;;;5037212;28;20180;-74
2023/05/10 10:15:34;;;;;;;14.95;11.85;;;12.40;94.10;;;;;;5040038;28;20029;-75
2023/05/10 10:18:00;;;;;;;16.92;11.57;;;12.50;94.00;;;;;;5049122;28;20055;-75
2023/05/10 10:20:26;;;;;;;16.63;12.80;;;12.40;94.30;;;;;;5049229;28;20017;-75
2023/05/10 10:22:52;;;;;;;22.60;15.00;;;12.40;94.60;;;;;;5047329;28;20028;-75
2023/05/10 10:25:19;;;;;;;19.58;14.43;;;12.40;94.20;;;;;;5050563;28;20072;-74
2023/05/10 10:27:54;;;;;;;19.45;14.50;;;12.50;94.60;;;;;;5047452;28;20074;-75
2023/05/10 10:30:42;;;;;;;23.52;15.25;;;12.50;94.30;;;;;;5043120;28;20016;-75
2023/05/10 10:33:27;;;;;;;20.75;15.95;;;12.40;94.40;;;;;;5040059;28;20021;-75
2023/05/10 10:35:54;;;;;;;21.48;15.68;;;12.50;94.90;;;;;;5054446;28;20021;-74
2023/05/10 10:38:20;;;;;;;22.50;16.60;;;12.60;94.40;;;;;;5039902;28;20160;-74
2023/05/10 10:40:47;;;;;;;23.45;17.48;;;13.00;95.10;;;;;;5043196;28;20025;-74
2023/05/10 10:43:26;;;;;;;22.10;17.23;;;13.10;94.90;;;;;;5057597;28;20095;-74
2023/05/10 10:46:16;;;;;;;20.42;16.40;;;13.10;94.60;;;;;;5049586;28;20029;-75
2023/05/10 10:48:49;;;;;;;19.42;15.18;;;13.30;94.20;;;;;;5048288;28;20092;-74
2023/05/10 10:51:14;;;;;;;19.00;14.40;;;13.00;93.70;;;;;;5050200;28;20241;-75
2023/05/10 10:53:40;;;;;;;17.27;13.77;;;13.20;94.40;;;;;;5046690;28;20107;-74
2023/05/10 10:56:09;;;;;;;17.85;15.18;;;13.10;94.10;;;;;;5048103;28;20032;-74
2023/05/10 10:58:36;;;;;;;19.42;15.50;;;13.30;94.80;;;;;;5061513;28;20032;-74
2023/05/10 11:01:16;;;;;;;20.60;15.45;;;13.50;94.30;;;;;;5044573;28;20441;-73
2023/05/10 11:04:02;;;;;;;20.90;14.87;;;13.60;94.00;;;;;;5062014;28;20032;-74
2023/05/10 11:06:35;;;;;;;19.13;14.45;;;13.60;94.30;;;;;;5038688;28;20461;-74
2023/05/10 11:09:12;;;;;;;15.60;12.70;;;13.80;94.10;;;;;;5055263;28;20029;-74
2023/05/10 11:11:58;;;;;;;20.67;12.77;;;13.70;92.90;;;;;;5034014;28;20451;-74
2023/05/10 11:14:24;;;;;;;15.40;12.45;;;13.80;93.50;;;;;;5050113;28;20025;-74
2023/05/10 11:16:50;;;;;;;17.30;13.13;;;13.80;93.90;;;;;;5044386;28;20029;-74
2023/05/10 11:19:17;;;;;;;15.65;12.48;;;14.10;94.00;;;;;;5050805;28;20078;-74
2023/05/10 11:21:48;;;;;;;13.52;11.00;;;14.10;93.30;;;;;;5054296;28;20024;-74
2023/05/10 11:24:16;;;;;;;14.27;11.18;;;14.20;93.10;;;;;;5046290;28;20044;-74
2023/05/10 11:26:41;;;;;;;13.32;10.60;;;14.10;92.90;;;;;;5047060;28;20025;-74
2023/05/10 11:29:07;;;;;;;13.45;10.75;;;14.50;93.20;;;;;;5046598;28;20429;-74
2023/05/10 11:31:33;;;;;;;12.88;11.02;;;14.40;93.20;;;;;;5048265;28;20033;-74
2023/05/10 11:34:01;;;;;;;13.63;11.30;;;14.60;92.60;;;;;;5040874;28;20032;-73
2023/05/10 11:36:28;;;;;;;12.80;10.50;;;14.70;93.00;;;;;;5048876;28;20099;-74
2023/05/10 11:38:56;;;;;;;12.95;10.68;;;14.50;91.00;;;;;;5048680;28;20109;-74
2023/05/10 11:41:23;;;;;;;11.88;9.88;;;14.80;93.20;;;;;;5046149;28;20068;-74
2023/05/10 11:43:55;;;;;;;11.65;9.63;;;14.90;92.30;;;;;;5041610;28;20485;-74
2023/05/10 11:46:23;;;;;;;12.75;10.02;;;14.80;92.60;;;;;;5048460;28;20041;-75
2023/05/10 11:49:01;;;;;;;14.15;10.48;;;14.80;92.00;;;;;;5053259;28;20464;-74
2023/05/10 11:51:27;;;;;;;11.85;9.82;;;15.00;93.00;;;;;;5053096;28;20032;-74
2023/05/10 11:53:54;;;;;;;13.18;10.50;;;14.90;91.70;;;;;;5053773;28;20432;-74
2023/05/10 11:56:20;;;;;;;12.07;10.30;;;15.10;93.00;;;;;;5042109;28;20358;-74
2023/05/10 11:58:51;;;;;;;12.90;9.65;;;15.30;91.80;;;;;;5059885;28;20037;-74
2023/05/10 12:01:16;;;;;;;;;;;15.30;92.00;;;;;;5048088;28;20451;-74
2023/05/10 12:03:42;;;;;;;12.13;9.73;;;14.90;90.90;;;;;;5052273;28;19934;-74
2023/05/10 12:06:08;;;;;;;11.40;9.98;;;15.40;91.90;;;;;;5053324;28;20116;-74
2023/05/10 12:08:33;;;;;;;11.15;9.45;;;15.80;91.30;;;;;;5057254;28;20532;-74
2023/05/10 12:11:12;;;;;;;12.35;9.30;;;15.40;91.70;;;;;;5053345;28;20024;-75
2023/05/10 12:13:40;;;;;;;12.23;8.75;;;15.60;92.10;;;;;;5043764;28;20411;-74
2023/05/10 12:16:25;;;;;;;10.00;8.40;;;15.40;90.60;;;;;;5050086;28;20454;-75
2023/05/10 12:18:52;;;;;;;11.18;8.65;;;15.10;91.40;;;;;;5050028;28;20170;-74
2023/05/10 12:21:21;;;;;;;10.43;8.40;;;15.20;92.50;;;;;;5049005;28;20033;-74
2023/05/10 12:23:52;;;;;;;10.93;8.63;;;15.20;90.50;;;;;;5065209;28;20034;-75
2023/05/10 12:26:18;;;;;;;11.27;8.90;;;15.40;91.40;;;;;;5062330;28;20059;-75
2023/05/10 12:28:44;;;;;;;10.45;8.57;;;15.40;90.70;;;;;;5059315;28;20040;-74
2023/05/10 12:31:09;;;;;;;11.63;8.32;;;15.50;90.80;;;;;;5056198;28;20372;-75
2023/05/10 12:33:38;;;;;;;11.63;9.05;;;15.80;91.30;;;;;;5047329;28;20290;-75
2023/05/10 12:36:05;;;;;;;12.10;8.82;;;16.00;90.30;;;;;;5044623;28;20029;-75
2023/05/10 12:38:42;;;;;;;9.30;8.20;;;15.80;91.30;;;;;;5048198;28;20025;-75
2023/05/10 12:41:10;;;;;;;10.95;8.02;;;16.10;90.50;;;;;;5048648;28;20431;-76
2023/05/10 12:43:36;;;;;;;9.77;8.07;;;16.20;90.10;;;;;;5049205;28;20056;-75
2023/05/10 12:46:09;;;;;;;9.85;8.07;;;16.20;89.80;;;;;;5050311;28;20041;-75